sensor_id;sensor_type;location;lat;lon;timestamp;P1;durP1;ratioP1;P2;durP2;ratioP2
50803;SDS011;37205;51.434;6.756;2022-10-30T00:00:29;12.27;;;5.10;;
50803;SDS011;37205;51.434;6.756;2022-10-30T00:02:55;10.88;;;5.25;;
50803;SDS011;37205;51.434;6.756;2022-10-30T00:05:21;11.88;;;5.63;;
50803;SDS011;37205;51.434;6.756;2022-10-30T00:07:47;12.70;;;5.38;;
50803;SDS011;37205;51.434;6.756;2022-10-30T00:10:13;10.93;;;6.20;;
50803;SDS011;37205;51.434;6.756;2022-10-30T00:12:39;14.05;;;6.40;;
50803;SDS011;37205;51.434;6.756;2022-10-30T00:15:05;11.13;;;5.30;;
50803;SDS011;37205;51.434;6.756;2022-10-30T00:17:31;10.23;;;5.78;;
50803;SDS011;37205;51.434;6.756;2022-10-30T00:19:57;12.45;;;5.85;;
50803;SDS011;37205;51.434;6.756;2022-10-30T00:22:22;11.43;;;5.85;;
50803;SDS011;37205;51.434;6.756;2022-10-30T00:24:48;10.63;;;5.57;;
50803;SDS011;37205;51.434;6.756;2022-10-30T00:27:14;12.10;;;6.20;;
50803;SDS011;37205;51.434;6.756;2022-10-30T00:29:40;12.07;;;5.28;;
50803;SDS011;37205;51.434;6.756;2022-10-30T00:32:05;11.43;;;5.63;;
50803;SDS011;37205;51.434;6.756;2022-10-30T00:34:31;12.63;;;5.72;;
50803;SDS011;37205;51.434;6.756;2022-10-30T00:36:57;14.40;;;6.30;;
50803;SDS011;37205;51.434;6.756;2022-10-30T00:39:23;13.18;;;5.75;;
50803;SDS011;37205;51.434;6.756;2022-10-30T00:41:48;10.43;;;5.78;;
50803;SDS011;37205;51.434;6.756;2022-10-30T00:44:34;8.95;;;6.07;;
50803;SDS011;37205;51.434;6.756;2022-10-30T00:47:11;12.02;;;5.68;;
50803;SDS011;37205;51.434;6.756;2022-10-30T00:49:46;14.35;;;6.15;;
50803;SDS011;37205;51.434;6.756;2022-10-30T00:52:22;12.00;;;6.47;;
50803;SDS011;37205;51.434;6.756;2022-10-30T00:54:50;8.95;;;5.80;;
50803;SDS011;37205;51.434;6.756;2022-10-30T00:57:18;15.65;;;6.28;;
50803;SDS011;37205;51.434;6.756;2022-10-30T00:59:44;11.35;;;5.85;;
50803;SDS011;37205;51.434;6.756;2022-10-30T01:02:11;9.57;;;5.65;;
50803;SDS011;37205;51.434;6.756;2022-10-30T01:04:37;10.38;;;5.97;;
50803;SDS011;37205;51.434;6.756;2022-10-30T01:07:06;9.68;;;4.93;;
50803;SDS011;37205;51.434;6.756;2022-10-30T01:09:35;13.73;;;6.07;;
50803;SDS011;37205;51.434;6.756;2022-10-30T01:12:02;12.27;;;6.25;;
50803;SDS011;37205;51.434;6.756;2022-10-30T01:14:27;14.80;;;5.95;;
50803;SDS011;37205;51.434;6.756;2022-10-30T01:16:56;9.88;;;5.93;;
50803;SDS011;37205;51.434;6.756;2022-10-30T01:22:30;11.93;;;6.60;;
50803;SDS011;37205;51.434;6.756;2022-10-30T01:25:29;13.50;;;6.10;;
50803;SDS011;37205;51.434;6.756;2022-10-30T01:28:03;11.17;;;6.00;;
50803;SDS011;37205;51.434;6.756;2022-10-30T01:36:28;16.43;;;6.23;;
50803;SDS011;37205;51.434;6.756;2022-10-30T01:39:06;11.68;;;6.07;;
50803;SDS011;37205;51.434;6.756;2022-10-30T01:41:36;11.60;;;6.25;;
50803;SDS011;37205;51.434;6.756;2022-10-30T01:44:02;10.93;;;5.63;;
50803;SDS011;37205;51.434;6.756;2022-10-30T01:55:18;15.15;;;6.85;;
50803;SDS011;37205;51.434;6.756;2022-10-30T01:57:58;12.18;;;6.00;;
50803;SDS011;37205;51.434;6.756;2022-10-30T02:00:36;11.43;;;6.15;;
50803;SDS011;37205;51.434;6.756;2022-10-30T02:03:04;11.68;;;6.00;;
50803;SDS011;37205;51.434;6.756;2022-10-30T02:05:47;11.07;;;5.90;;
50803;SDS011;37205;51.434;6.756;2022-10-30T02:08:13;13.82;;;6.30;;
50803;SDS011;37205;51.434;6.756;2022-10-30T02:10:40;13.85;;;6.20;;
50803;SDS011;37205;51.434;6.756;2022-10-30T02:13:08;18.13;;;6.55;;
50803;SDS011;37205;51.434;6.756;2022-10-30T02:15:34;13.90;;;6.43;;
50803;SDS011;37205;51.434;6.756;2022-10-30T02:18:00;12.95;;;5.97;;
50803;SDS011;37205;51.434;6.756;2022-10-30T02:20:26;10.57;;;6.50;;
50803;SDS011;37205;51.434;6.756;2022-10-30T02:22:52;13.48;;;6.28;;
50803;SDS011;37205;51.434;6.756;2022-10-30T02:25:18;10.90;;;5.95;;
50803;SDS011;37205;51.434;6.756;2022-10-30T02:27:43;14.07;;;6.15;;
50803;SDS011;37205;51.434;6.756;2022-10-30T02:30:09;13.48;;;6.45;;
50803;SDS011;37205;51.434;6.756;2022-10-30T02:32:35;11.55;;;5.90;;
50803;SDS011;37205;51.434;6.756;2022-10-30T02:35:01;11.50;;;6.22;;
50803;SDS011;37205;51.434;6.756;2022-10-30T02:37:28;12.18;;;6.70;;
50803;SDS011;37205;51.434;6.756;2022-10-30T02:39:53;10.07;;;6.15;;
50803;SDS011;37205;51.434;6.756;2022-10-30T02:42:19;13.60;;;6.68;;
50803;SDS011;37205;51.434;6.756;2022-10-30T02:44:44;10.15;;;5.88;;
50803;SDS011;37205;51.434;6.756;2022-10-30T02:47:10;15.23;;;6.72;;
50803;SDS011;37205;51.434;6.756;2022-10-30T02:49:35;15.80;;;6.80;;
50803;SDS011;37205;51.434;6.756;2022-10-30T02:52:01;16.75;;;6.57;;
50803;SDS011;37205;51.434;6.756;2022-10-30T02:54:27;14.25;;;6.55;;
50803;SDS011;37205;51.434;6.756;2022-10-30T02:56:52;11.63;;;6.68;;
50803;SDS011;37205;51.434;6.756;2022-10-30T02:59:18;12.13;;;6.55;;
50803;SDS011;37205;51.434;6.756;2022-10-30T03:01:44;12.50;;;6.40;;
50803;SDS011;37205;51.434;6.756;2022-10-30T03:04:10;14.40;;;7.13;;
50803;SDS011;37205;51.434;6.756;2022-10-30T03:06:35;12.32;;;6.85;;
50803;SDS011;37205;51.434;6.756;2022-10-30T03:09:01;12.35;;;6.82;;
50803;SDS011;37205;51.434;6.756;2022-10-30T03:11:27;12.75;;;7.07;;
50803;SDS011;37205;51.434;6.756;2022-10-30T03:13:52;13.13;;;6.60;;
50803;SDS011;37205;51.434;6.756;2022-10-30T03:16:20;14.32;;;6.88;;
50803;SDS011;37205;51.434;6.756;2022-10-30T03:18:47;11.40;;;6.80;;
50803;SDS011;37205;51.434;6.756;2022-10-30T03:21:15;16.70;;;6.60;;
50803;SDS011;37205;51.434;6.756;2022-10-30T03:23:42;13.45;;;6.70;;
50803;SDS011;37205;51.434;6.756;2022-10-30T03:26:08;16.42;;;6.57;;
50803;SDS011;37205;51.434;6.756;2022-10-30T03:28:34;13.38;;;6.85;;
50803;SDS011;37205;51.434;6.756;2022-10-30T03:31:02;13.15;;;6.95;;
50803;SDS011;37205;51.434;6.756;2022-10-30T03:33:32;11.80;;;6.45;;
50803;SDS011;37205;51.434;6.756;2022-10-30T03:35:58;14.02;;;7.07;;
50803;SDS011;37205;51.434;6.756;2022-10-30T03:38:26;11.93;;;6.82;;
50803;SDS011;37205;51.434;6.756;2022-10-30T03:40:51;13.13;;;7.13;;
50803;SDS011;37205;51.434;6.756;2022-10-30T03:43:17;12.90;;;7.15;;
50803;SDS011;37205;51.434;6.756;2022-10-30T03:45:46;14.15;;;7.50;;
50803;SDS011;37205;51.434;6.756;2022-10-30T03:48:13;12.73;;;7.10;;
50803;SDS011;37205;51.434;6.756;2022-10-30T03:50:40;13.10;;;7.15;;
50803;SDS011;37205;51.434;6.756;2022-10-30T03:53:05;13.35;;;7.03;;
50803;SDS011;37205;51.434;6.756;2022-10-30T03:55:31;12.07;;;6.45;;
50803;SDS011;37205;51.434;6.756;2022-10-30T03:57:56;14.82;;;7.28;;
50803;SDS011;37205;51.434;6.756;2022-10-30T04:00:22;17.50;;;8.05;;
50803;SDS011;37205;51.434;6.756;2022-10-30T04:02:48;15.43;;;7.40;;
50803;SDS011;37205;51.434;6.756;2022-10-30T04:05:16;15.82;;;7.43;;
50803;SDS011;37205;51.434;6.756;2022-10-30T04:07:43;14.20;;;7.25;;
50803;SDS011;37205;51.434;6.756;2022-10-30T04:10:09;13.52;;;6.80;;
50803;SDS011;37205;51.434;6.756;2022-10-30T04:12:35;12.27;;;6.90;;
50803;SDS011;37205;51.434;6.756;2022-10-30T04:15:01;12.35;;;6.90;;
50803;SDS011;37205;51.434;6.756;2022-10-30T04:17:27;11.77;;;7.30;;
50803;SDS011;37205;51.434;6.756;2022-10-30T04:19:53;11.80;;;7.05;;
50803;SDS011;37205;51.434;6.756;2022-10-30T04:22:18;14.48;;;6.82;;
50803;SDS011;37205;51.434;6.756;2022-10-30T04:24:44;15.18;;;7.07;;
50803;SDS011;37205;51.434;6.756;2022-10-30T04:27:10;14.82;;;6.90;;
50803;SDS011;37205;51.434;6.756;2022-10-30T04:29:37;14.10;;;7.20;;
50803;SDS011;37205;51.434;6.756;2022-10-30T04:32:03;10.88;;;6.63;;
50803;SDS011;37205;51.434;6.756;2022-10-30T04:34:28;14.18;;;6.70;;
50803;SDS011;37205;51.434;6.756;2022-10-30T04:36:54;12.07;;;7.43;;
50803;SDS011;37205;51.434;6.756;2022-10-30T04:39:20;12.70;;;7.03;;
50803;SDS011;37205;51.434;6.756;2022-10-30T04:41:45;12.88;;;7.47;;
50803;SDS011;37205;51.434;6.756;2022-10-30T04:44:11;13.48;;;7.00;;
50803;SDS011;37205;51.434;6.756;2022-10-30T04:46:36;14.85;;;7.50;;
50803;SDS011;37205;51.434;6.756;2022-10-30T04:49:02;11.65;;;7.10;;
50803;SDS011;37205;51.434;6.756;2022-10-30T04:51:27;11.52;;;7.18;;
50803;SDS011;37205;51.434;6.756;2022-10-30T04:53:53;13.40;;;7.35;;
50803;SDS011;37205;51.434;6.756;2022-10-30T04:56:19;13.23;;;7.50;;
50803;SDS011;37205;51.434;6.756;2022-10-30T04:58:45;11.77;;;6.82;;
50803;SDS011;37205;51.434;6.756;2022-10-30T05:01:10;14.15;;;7.20;;
50803;SDS011;37205;51.434;6.756;2022-10-30T05:03:36;13.30;;;7.55;;
50803;SDS011;37205;51.434;6.756;2022-10-30T05:06:02;15.88;;;7.43;;
50803;SDS011;37205;51.434;6.756;2022-10-30T05:08:30;12.40;;;7.43;;
50803;SDS011;37205;51.434;6.756;2022-10-30T05:10:57;12.10;;;6.95;;
50803;SDS011;37205;51.434;6.756;2022-10-30T05:13:22;12.20;;;7.45;;
50803;SDS011;37205;51.434;6.756;2022-10-30T05:15:48;14.27;;;7.68;;
50803;SDS011;37205;51.434;6.756;2022-10-30T05:18:14;10.82;;;7.15;;
50803;SDS011;37205;51.434;6.756;2022-10-30T05:20:39;15.30;;;8.23;;
50803;SDS011;37205;51.434;6.756;2022-10-30T05:23:05;11.77;;;6.75;;
50803;SDS011;37205;51.434;6.756;2022-10-30T05:25:31;12.82;;;7.00;;
50803;SDS011;37205;51.434;6.756;2022-10-30T05:27:57;12.00;;;7.18;;
50803;SDS011;37205;51.434;6.756;2022-10-30T05:30:29;15.40;;;7.45;;
50803;SDS011;37205;51.434;6.756;2022-10-30T05:32:56;15.93;;;7.28;;
50803;SDS011;37205;51.434;6.756;2022-10-30T05:35:23;14.90;;;7.72;;
50803;SDS011;37205;51.434;6.756;2022-10-30T05:37:49;13.60;;;7.25;;
50803;SDS011;37205;51.434;6.756;2022-10-30T05:40:14;13.27;;;6.82;;
50803;SDS011;37205;51.434;6.756;2022-10-30T05:42:46;13.80;;;7.10;;
50803;SDS011;37205;51.434;6.756;2022-10-30T05:45:12;16.15;;;7.53;;
50803;SDS011;37205;51.434;6.756;2022-10-30T05:47:38;13.45;;;7.72;;
50803;SDS011;37205;51.434;6.756;2022-10-30T05:50:04;16.50;;;7.57;;
50803;SDS011;37205;51.434;6.756;2022-10-30T05:52:31;15.82;;;6.93;;
50803;SDS011;37205;51.434;6.756;2022-10-30T05:54:56;14.70;;;7.68;;
50803;SDS011;37205;51.434;6.756;2022-10-30T05:57:22;11.88;;;6.60;;
50803;SDS011;37205;51.434;6.756;2022-10-30T05:59:48;13.40;;;7.53;;
50803;SDS011;37205;51.434;6.756;2022-10-30T06:02:15;13.20;;;7.45;;
50803;SDS011;37205;51.434;6.756;2022-10-30T06:04:41;12.98;;;6.90;;
50803;SDS011;37205;51.434;6.756;2022-10-30T06:07:06;12.98;;;7.03;;
50803;SDS011;37205;51.434;6.756;2022-10-30T06:09:32;13.23;;;7.90;;
50803;SDS011;37205;51.434;6.756;2022-10-30T06:11:57;10.95;;;7.20;;
50803;SDS011;37205;51.434;6.756;2022-10-30T06:14:23;12.57;;;7.43;;
50803;SDS011;37205;51.434;6.756;2022-10-30T06:16:49;11.93;;;7.50;;
50803;SDS011;37205;51.434;6.756;2022-10-30T06:19:14;15.18;;;7.95;;
50803;SDS011;37205;51.434;6.756;2022-10-30T06:21:40;17.40;;;7.82;;
50803;SDS011;37205;51.434;6.756;2022-10-30T06:24:05;13.75;;;7.40;;
50803;SDS011;37205;51.434;6.756;2022-10-30T06:26:31;11.85;;;7.40;;
50803;SDS011;37205;51.434;6.756;2022-10-30T06:28:57;16.13;;;7.43;;
50803;SDS011;37205;51.434;6.756;2022-10-30T06:31:22;15.18;;;7.95;;
50803;SDS011;37205;51.434;6.756;2022-10-30T06:33:48;13.77;;;7.50;;
50803;SDS011;37205;51.434;6.756;2022-10-30T06:36:13;11.60;;;6.65;;
50803;SDS011;37205;51.434;6.756;2022-10-30T06:38:41;15.10;;;7.63;;
50803;SDS011;37205;51.434;6.756;2022-10-30T06:41:07;13.98;;;7.60;;
50803;SDS011;37205;51.434;6.756;2022-10-30T06:43:32;14.73;;;7.80;;
50803;SDS011;37205;51.434;6.756;2022-10-30T06:45:58;16.05;;;8.18;;
50803;SDS011;37205;51.434;6.756;2022-10-30T06:48:24;12.70;;;7.85;;
50803;SDS011;37205;51.434;6.756;2022-10-30T06:50:53;14.10;;;7.88;;
50803;SDS011;37205;51.434;6.756;2022-10-30T06:53:22;13.52;;;7.75;;
50803;SDS011;37205;51.434;6.756;2022-10-30T06:55:58;13.90;;;7.80;;
50803;SDS011;37205;51.434;6.756;2022-10-30T06:58:25;12.60;;;7.18;;
50803;SDS011;37205;51.434;6.756;2022-10-30T07:00:52;13.00;;;7.68;;
50803;SDS011;37205;51.434;6.756;2022-10-30T07:03:17;13.02;;;7.45;;
50803;SDS011;37205;51.434;6.756;2022-10-30T07:05:43;10.93;;;7.25;;
50803;SDS011;37205;51.434;6.756;2022-10-30T07:08:09;11.93;;;7.50;;
50803;SDS011;37205;51.434;6.756;2022-10-30T07:10:35;16.42;;;8.05;;
50803;SDS011;37205;51.434;6.756;2022-10-30T07:13:01;16.08;;;7.85;;
50803;SDS011;37205;51.434;6.756;2022-10-30T07:15:26;15.63;;;7.97;;
50803;SDS011;37205;51.434;6.756;2022-10-30T07:20:19;13.85;;;7.95;;
50803;SDS011;37205;51.434;6.756;2022-10-30T07:22:53;15.15;;;8.20;;
50803;SDS011;37205;51.434;6.756;2022-10-30T07:25:19;17.60;;;9.15;;
50803;SDS011;37205;51.434;6.756;2022-10-30T07:27:48;13.98;;;7.35;;
50803;SDS011;37205;51.434;6.756;2022-10-30T07:30:16;14.75;;;7.63;;
50803;SDS011;37205;51.434;6.756;2022-10-30T07:32:44;17.13;;;9.20;;
50803;SDS011;37205;51.434;6.756;2022-10-30T07:35:10;11.23;;;7.65;;
50803;SDS011;37205;51.434;6.756;2022-10-30T07:37:38;14.77;;;8.02;;
50803;SDS011;37205;51.434;6.756;2022-10-30T07:40:04;14.13;;;8.25;;
50803;SDS011;37205;51.434;6.756;2022-10-30T07:42:31;13.70;;;7.68;;
50803;SDS011;37205;51.434;6.756;2022-10-30T07:44:57;13.88;;;8.32;;
50803;SDS011;37205;51.434;6.756;2022-10-30T07:47:23;12.30;;;7.72;;
50803;SDS011;37205;51.434;6.756;2022-10-30T07:49:49;14.43;;;8.38;;
50803;SDS011;37205;51.434;6.756;2022-10-30T07:52:14;13.00;;;7.97;;
50803;SDS011;37205;51.434;6.756;2022-10-30T07:54:40;17.10;;;8.30;;
50803;SDS011;37205;51.434;6.756;2022-10-30T07:57:06;13.95;;;8.90;;
50803;SDS011;37205;51.434;6.756;2022-10-30T07:59:31;14.43;;;7.30;;
50803;SDS011;37205;51.434;6.756;2022-10-30T08:01:57;15.50;;;7.70;;
50803;SDS011;37205;51.434;6.756;2022-10-30T08:04:24;16.60;;;7.55;;
50803;SDS011;37205;51.434;6.756;2022-10-30T08:06:50;15.77;;;8.00;;
50803;SDS011;37205;51.434;6.756;2022-10-30T08:09:16;14.73;;;7.50;;
50803;SDS011;37205;51.434;6.756;2022-10-30T08:11:42;12.93;;;6.95;;
50803;SDS011;37205;51.434;6.756;2022-10-30T08:14:07;14.48;;;6.60;;
50803;SDS011;37205;51.434;6.756;2022-10-30T08:16:33;13.23;;;7.53;;
50803;SDS011;37205;51.434;6.756;2022-10-30T08:18:58;11.45;;;6.63;;
50803;SDS011;37205;51.434;6.756;2022-10-30T08:21:24;13.68;;;7.13;;
50803;SDS011;37205;51.434;6.756;2022-10-30T08:23:50;13.35;;;7.30;;
50803;SDS011;37205;51.434;6.756;2022-10-30T08:26:15;15.30;;;6.80;;
50803;SDS011;37205;51.434;6.756;2022-10-30T08:28:41;13.23;;;7.18;;
50803;SDS011;37205;51.434;6.756;2022-10-30T08:31:07;12.63;;;6.80;;
50803;SDS011;37205;51.434;6.756;2022-10-30T08:33:32;14.73;;;6.68;;
50803;SDS011;37205;51.434;6.756;2022-10-30T08:35:58;15.88;;;6.55;;
50803;SDS011;37205;51.434;6.756;2022-10-30T08:38:25;11.88;;;8.18;;
50803;SDS011;37205;51.434;6.756;2022-10-30T08:40:52;14.73;;;7.55;;
50803;SDS011;37205;51.434;6.756;2022-10-30T08:43:18;16.50;;;8.27;;
50803;SDS011;37205;51.434;6.756;2022-10-30T08:45:44;17.55;;;8.68;;
50803;SDS011;37205;51.434;6.756;2022-10-30T08:48:11;13.20;;;6.80;;
50803;SDS011;37205;51.434;6.756;2022-10-30T08:50:40;12.52;;;6.85;;
50803;SDS011;37205;51.434;6.756;2022-10-30T08:53:06;12.85;;;6.68;;
50803;SDS011;37205;51.434;6.756;2022-10-30T08:55:34;13.52;;;6.50;;
50803;SDS011;37205;51.434;6.756;2022-10-30T08:58:00;12.45;;;6.60;;
50803;SDS011;37205;51.434;6.756;2022-10-30T09:00:26;11.73;;;6.15;;
50803;SDS011;37205;51.434;6.756;2022-10-30T09:02:52;19.08;;;6.78;;
50803;SDS011;37205;51.434;6.756;2022-10-30T09:05:18;13.48;;;6.38;;
50803;SDS011;37205;51.434;6.756;2022-10-30T09:07:44;11.25;;;6.05;;
50803;SDS011;37205;51.434;6.756;2022-10-30T09:10:11;11.77;;;6.05;;
50803;SDS011;37205;51.434;6.756;2022-10-30T09:12:36;12.07;;;5.65;;
50803;SDS011;37205;51.434;6.756;2022-10-30T09:15:02;11.38;;;5.90;;
50803;SDS011;37205;51.434;6.756;2022-10-30T09:17:28;13.55;;;6.13;;
50803;SDS011;37205;51.434;6.756;2022-10-30T09:19:53;13.27;;;6.05;;
50803;SDS011;37205;51.434;6.756;2022-10-30T09:22:19;11.63;;;6.05;;
50803;SDS011;37205;51.434;6.756;2022-10-30T09:24:45;12.93;;;6.68;;
50803;SDS011;37205;51.434;6.756;2022-10-30T09:27:10;14.55;;;7.40;;
50803;SDS011;37205;51.434;6.756;2022-10-30T09:29:36;13.05;;;6.60;;
50803;SDS011;37205;51.434;6.756;2022-10-30T09:32:02;12.73;;;6.18;;
50803;SDS011;37205;51.434;6.756;2022-10-30T09:34:32;12.45;;;6.90;;
50803;SDS011;37205;51.434;6.756;2022-10-30T09:36:58;13.57;;;5.80;;
50803;SDS011;37205;51.434;6.756;2022-10-30T09:39:24;10.95;;;5.72;;
50803;SDS011;37205;51.434;6.756;2022-10-30T09:47:06;11.18;;;5.68;;
50803;SDS011;37205;51.434;6.756;2022-10-30T09:49:44;12.43;;;5.72;;
50803;SDS011;37205;51.434;6.756;2022-10-30T09:52:24;14.70;;;5.70;;
50803;SDS011;37205;51.434;6.756;2022-10-30T09:57:31;9.70;;;5.63;;
50803;SDS011;37205;51.434;6.756;2022-10-30T10:00:12;11.20;;;5.40;;
50803;SDS011;37205;51.434;6.756;2022-10-30T10:03:02;13.07;;;6.05;;
50803;SDS011;37205;51.434;6.756;2022-10-30T10:05:43;12.32;;;6.35;;
50803;SDS011;37205;51.434;6.756;2022-10-30T10:08:15;13.32;;;5.60;;
50803;SDS011;37205;51.434;6.756;2022-10-30T10:10:44;9.80;;;5.63;;
50803;SDS011;37205;51.434;6.756;2022-10-30T10:13:22;17.02;;;6.82;;
50803;SDS011;37205;51.434;6.756;2022-10-30T10:18:41;12.63;;;5.63;;
50803;SDS011;37205;51.434;6.756;2022-10-30T10:23:50;15.05;;;5.65;;
50803;SDS011;37205;51.434;6.756;2022-10-30T10:26:42;11.07;;;6.10;;
50803;SDS011;37205;51.434;6.756;2022-10-30T10:38:04;11.73;;;5.85;;
50803;SDS011;37205;51.434;6.756;2022-10-30T10:46:25;12.73;;;5.63;;
50803;SDS011;37205;51.434;6.756;2022-10-30T10:51:57;12.82;;;5.97;;
50803;SDS011;37205;51.434;6.756;2022-10-30T10:54:34;13.07;;;5.78;;
50803;SDS011;37205;51.434;6.756;2022-10-30T10:57:02;12.40;;;5.25;;
50803;SDS011;37205;51.434;6.756;2022-10-30T11:05:05;11.88;;;6.55;;
50803;SDS011;37205;51.434;6.756;2022-10-30T11:07:44;14.05;;;5.40;;
50803;SDS011;37205;51.434;6.756;2022-10-30T11:10:12;10.85;;;5.30;;
50803;SDS011;37205;51.434;6.756;2022-10-30T11:12:39;14.88;;;5.90;;
50803;SDS011;37205;51.434;6.756;2022-10-30T11:15:15;11.75;;;5.38;;
50803;SDS011;37205;51.434;6.756;2022-10-30T11:17:44;11.75;;;5.43;;
50803;SDS011;37205;51.434;6.756;2022-10-30T11:20:19;10.80;;;5.78;;
50803;SDS011;37205;51.434;6.756;2022-10-30T11:22:52;14.45;;;6.00;;
50803;SDS011;37205;51.434;6.756;2022-10-30T11:25:24;17.05;;;6.00;;
50803;SDS011;37205;51.434;6.756;2022-10-30T11:27:58;10.02;;;5.32;;
50803;SDS011;37205;51.434;6.756;2022-10-30T11:30:26;8.32;;;5.30;;
50803;SDS011;37205;51.434;6.756;2022-10-30T11:32:52;13.15;;;5.90;;
50803;SDS011;37205;51.434;6.756;2022-10-30T11:35:22;12.20;;;5.78;;
50803;SDS011;37205;51.434;6.756;2022-10-30T11:37:49;12.77;;;5.63;;
50803;SDS011;37205;51.434;6.756;2022-10-30T11:40:24;15.27;;;6.32;;
50803;SDS011;37205;51.434;6.756;2022-10-30T11:45:32;13.20;;;5.75;;
50803;SDS011;37205;51.434;6.756;2022-10-30T11:48:01;10.45;;;5.65;;
50803;SDS011;37205;51.434;6.756;2022-10-30T11:50:34;14.52;;;5.88;;
50803;SDS011;37205;51.434;6.756;2022-10-30T11:53:09;12.90;;;5.35;;
50803;SDS011;37205;51.434;6.756;2022-10-30T11:55:43;11.40;;;5.35;;
50803;SDS011;37205;51.434;6.756;2022-10-30T11:58:19;10.40;;;5.85;;
50803;SDS011;37205;51.434;6.756;2022-10-30T12:00:56;16.60;;;8.93;;
50803;SDS011;37205;51.434;6.756;2022-10-30T12:03:37;14.45;;;6.40;;
50803;SDS011;37205;51.434;6.756;2022-10-30T12:06:07;16.80;;;8.70;;
50803;SDS011;37205;51.434;6.756;2022-10-30T12:11:34;11.40;;;5.07;;
50803;SDS011;37205;51.434;6.756;2022-10-30T12:14:00;16.25;;;5.97;;
50803;SDS011;37205;51.434;6.756;2022-10-30T12:16:27;12.70;;;5.28;;
50803;SDS011;37205;51.434;6.756;2022-10-30T12:21:27;11.77;;;5.55;;
50803;SDS011;37205;51.434;6.756;2022-10-30T12:23:56;12.02;;;5.82;;
50803;SDS011;37205;51.434;6.756;2022-10-30T12:26:27;13.50;;;5.85;;
50803;SDS011;37205;51.434;6.756;2022-10-30T12:28:56;10.70;;;5.03;;
50803;SDS011;37205;51.434;6.756;2022-10-30T12:31:35;11.73;;;5.32;;
50803;SDS011;37205;51.434;6.756;2022-10-30T12:36:50;12.27;;;5.70;;
50803;SDS011;37205;51.434;6.756;2022-10-30T12:39:22;13.18;;;5.15;;
50803;SDS011;37205;51.434;6.756;2022-10-30T12:42:16;13.73;;;5.20;;
50803;SDS011;37205;51.434;6.756;2022-10-30T12:47:58;11.00;;;5.25;;
50803;SDS011;37205;51.434;6.756;2022-10-30T12:55:41;13.15;;;4.90;;
50803;SDS011;37205;51.434;6.756;2022-10-30T13:01:11;11.40;;;5.43;;
50803;SDS011;37205;51.434;6.756;2022-10-30T13:03:59;12.05;;;5.72;;
50803;SDS011;37205;51.434;6.756;2022-10-30T13:09:29;14.50;;;5.40;;
50803;SDS011;37205;51.434;6.756;2022-10-30T13:12:13;12.82;;;5.32;;
50803;SDS011;37205;51.434;6.756;2022-10-30T13:14:48;12.73;;;5.03;;
50803;SDS011;37205;51.434;6.756;2022-10-30T13:17:18;11.63;;;5.20;;
50803;SDS011;37205;51.434;6.756;2022-10-30T13:19:44;12.90;;;5.97;;
50803;SDS011;37205;51.434;6.756;2022-10-30T13:22:12;12.13;;;5.72;;
50803;SDS011;37205;51.434;6.756;2022-10-30T13:32:40;10.73;;;5.57;;
50803;SDS011;37205;51.434;6.756;2022-10-30T13:37:52;12.98;;;5.63;;
50803;SDS011;37205;51.434;6.756;2022-10-30T13:43:33;16.20;;;6.68;;
50803;SDS011;37205;51.434;6.756;2022-10-30T13:51:50;12.57;;;5.22;;
50803;SDS011;37205;51.434;6.756;2022-10-30T13:56:50;16.10;;;5.88;;
50803;SDS011;37205;51.434;6.756;2022-10-30T14:02:16;12.38;;;5.95;;
50803;SDS011;37205;51.434;6.756;2022-10-30T14:10:08;10.57;;;5.55;;
50803;SDS011;37205;51.434;6.756;2022-10-30T14:28:27;14.48;;;7.28;;
50803;SDS011;37205;51.434;6.756;2022-10-30T14:31:03;17.80;;;7.78;;
50803;SDS011;37205;51.434;6.756;2022-10-30T14:36:17;13.10;;;6.82;;
50803;SDS011;37205;51.434;6.756;2022-10-30T14:38:59;15.07;;;6.90;;
50803;SDS011;37205;51.434;6.756;2022-10-30T14:41:54;10.38;;;6.18;;
50803;SDS011;37205;51.434;6.756;2022-10-30T14:44:58;12.82;;;5.95;;
50803;SDS011;37205;51.434;6.756;2022-10-30T14:50:15;13.55;;;6.35;;
50803;SDS011;37205;51.434;6.756;2022-10-30T14:58:43;13.55;;;7.20;;
50803;SDS011;37205;51.434;6.756;2022-10-30T15:04:22;13.77;;;8.02;;
50803;SDS011;37205;51.434;6.756;2022-10-30T15:15:00;24.98;;;16.83;;
50803;SDS011;37205;51.434;6.756;2022-10-30T15:20:06;30.65;;;20.63;;
50803;SDS011;37205;51.434;6.756;2022-10-30T15:22:38;20.90;;;10.73;;
50803;SDS011;37205;51.434;6.756;2022-10-30T15:25:05;14.10;;;7.22;;
50803;SDS011;37205;51.434;6.756;2022-10-30T15:27:40;13.90;;;7.50;;
50803;SDS011;37205;51.434;6.756;2022-10-30T15:30:19;15.40;;;6.97;;
50803;SDS011;37205;51.434;6.756;2022-10-30T15:32:47;11.85;;;7.10;;
50803;SDS011;37205;51.434;6.756;2022-10-30T15:35:17;11.65;;;5.93;;
50803;SDS011;37205;51.434;6.756;2022-10-30T15:38:05;12.75;;;6.53;;
50803;SDS011;37205;51.434;6.756;2022-10-30T15:40:34;15.32;;;7.25;;
50803;SDS011;37205;51.434;6.756;2022-10-30T15:43:02;11.90;;;6.70;;
50803;SDS011;37205;51.434;6.756;2022-10-30T15:45:36;11.40;;;6.35;;
50803;SDS011;37205;51.434;6.756;2022-10-30T15:48:11;10.45;;;6.13;;
50803;SDS011;37205;51.434;6.756;2022-10-30T15:53:35;13.05;;;6.50;;
50803;SDS011;37205;51.434;6.756;2022-10-30T15:56:03;12.77;;;6.35;;
50803;SDS011;37205;51.434;6.756;2022-10-30T15:58:30;10.68;;;6.18;;
50803;SDS011;37205;51.434;6.756;2022-10-30T16:00:59;15.00;;;6.63;;
50803;SDS011;37205;51.434;6.756;2022-10-30T16:03:30;14.35;;;6.43;;
50803;SDS011;37205;51.434;6.756;2022-10-30T16:06:05;13.57;;;6.40;;
50803;SDS011;37205;51.434;6.756;2022-10-30T16:08:41;13.53;;;6.83;;
50803;SDS011;37205;51.434;6.756;2022-10-30T16:11:08;10.38;;;6.85;;
50803;SDS011;37205;51.434;6.756;2022-10-30T16:13:34;12.73;;;7.80;;
50803;SDS011;37205;51.434;6.756;2022-10-30T16:16:00;15.68;;;7.60;;
50803;SDS011;37205;51.434;6.756;2022-10-30T16:18:28;14.05;;;7.30;;
50803;SDS011;37205;51.434;6.756;2022-10-30T16:20:57;15.75;;;7.80;;
50803;SDS011;37205;51.434;6.756;2022-10-30T16:23:41;18.67;;;7.53;;
50803;SDS011;37205;51.434;6.756;2022-10-30T16:26:22;15.95;;;8.45;;
50803;SDS011;37205;51.434;6.756;2022-10-30T16:29:45;14.05;;;8.20;;
50803;SDS011;37205;51.434;6.756;2022-10-30T16:31:50;19.05;;;8.30;;
50803;SDS011;37205;51.434;6.756;2022-10-30T16:34:27;17.25;;;9.45;;
50803;SDS011;37205;51.434;6.756;2022-10-30T16:36:59;12.52;;;7.95;;
50803;SDS011;37205;51.434;6.756;2022-10-30T16:39:26;15.95;;;8.35;;
50803;SDS011;37205;51.434;6.756;2022-10-30T16:41:56;15.55;;;8.02;;
50803;SDS011;37205;51.434;6.756;2022-10-30T16:44:27;12.23;;;7.85;;
50803;SDS011;37205;51.434;6.756;2022-10-30T16:46:57;14.85;;;7.68;;
50803;SDS011;37205;51.434;6.756;2022-10-30T16:49:25;16.88;;;7.65;;
50803;SDS011;37205;51.434;6.756;2022-10-30T16:51:57;20.90;;;9.48;;
50803;SDS011;37205;51.434;6.756;2022-10-30T16:54:28;20.45;;;10.40;;
50803;SDS011;37205;51.434;6.756;2022-10-30T16:56:57;21.20;;;10.98;;
50803;SDS011;37205;51.434;6.756;2022-10-30T16:59:29;20.02;;;10.73;;
50803;SDS011;37205;51.434;6.756;2022-10-30T17:01:58;19.00;;;9.90;;
50803;SDS011;37205;51.434;6.756;2022-10-30T17:04:29;21.20;;;10.68;;
50803;SDS011;37205;51.434;6.756;2022-10-30T17:07:03;14.48;;;9.05;;
50803;SDS011;37205;51.434;6.756;2022-10-30T17:09:33;14.23;;;9.02;;
50803;SDS011;37205;51.434;6.756;2022-10-30T17:12:05;15.23;;;8.13;;
50803;SDS011;37205;51.434;6.756;2022-10-30T17:15:21;18.00;;;7.82;;
50803;SDS011;37205;51.434;6.756;2022-10-30T17:20:02;14.63;;;8.25;;
50803;SDS011;37205;51.434;6.756;2022-10-30T17:22:33;15.70;;;8.60;;